Time;durP1;ratioP1;P1;durP2;ratioP2;P2;SDS_P1;SDS_P2;PMS_P1;PMS_P2;Temp;Humidity;BMP_temperature;BMP_pressure;BME280_temperature;BME280_humidity;BME280_pressure;Samples;Min_cycle;Max_cycle;Signal;HPM_P1;HPM_P2
2021/11/25 00:03:43;;;;;;;46.92;21.58;;;;;;;2.68;100.00;101279.97;10622254;27;20053;-84
2021/11/25 00:08:45;;;;;;;51.88;20.80;;;;;;;2.67;100.00;101278.22;10603782;27;20054;-84
2021/11/25 00:13:46;;;;;;;42.97;20.95;;;;;;;2.63;100.00;101266.94;10603541;27;20040;-83
2021/11/25 00:18:48;;;;;;;47.92;23.38;;;;;;;2.76;100.00;101263.34;10596886;27;20310;-84
2021/11/25 00:23:49;;;;;;;47.03;23.38;;;;;;;2.70;100.00;101257.91;10590093;27;20043;-84
2021/11/25 00:28:51;;;;;;;48.78;25.08;;;;;;;2.72;100.00;101258.00;10577366;28;20051;-83
2021/11/25 00:33:53;;;;;;;45.47;23.75;;;;;;;2.67;100.00;101245.00;10577712;28;20403;-85
2021/11/25 00:38:55;;;;;;;49.92;24.40;;;;;;;2.76;100.00;101245.47;10580595;27;20101;-83
2021/11/25 00:43:57;;;;;;;53.88;25.38;;;;;;;2.68;100.00;101240.78;10589463;27;20460;-83
2021/11/25 00:48:59;;;;;;;55.85;27.27;;;;;;;2.66;100.00;101236.44;10591147;27;20075;-83
2021/11/25 00:54:01;;;;;;;36.08;19.08;;;;;;;2.51;100.00;101227.13;10581991;28;20069;-83
2021/11/25 00:59:02;;;;;;;46.58;22.83;;;;;;;2.51;100.00;101227.13;10584602;28;20058;-83
2021/11/25 01:04:04;;;;;;;50.42;24.20;;;;;;;2.58;100.00;101236.84;10602041;27;20039;-84
2021/11/25 01:09:06;;;;;;;50.38;23.00;;;;;;;2.53;100.00;101217.84;10607209;27;20089;-84
2021/11/25 01:14:18;;;;;;;47.30;24.10;;;;;;;2.58;100.00;101222.41;10620521;27;20109;-83
2021/11/25 01:19:19;;;;;;;44.25;22.50;;;;;;;2.53;100.00;101228.06;10635185;27;20391;-83
2021/11/25 01:24:21;;;;;;;42.17;22.50;;;;;;;2.62;100.00;101223.44;10603854;27;20426;-83
2021/11/25 01:29:23;;;;;;;47.15;23.05;;;;;;;2.60;100.00;101232.69;10605925;27;20054;-84
2021/11/25 01:34:25;;;;;;;47.17;24.13;;;;;;;2.69;100.00;101222.09;10611020;27;20043;-84
2021/11/25 01:39:27;;;;;;;54.67;26.05;;;;;;;2.76;100.00;101227.59;10596995;27;20062;-84
2021/11/25 01:44:28;;;;;;;51.58;25.95;;;;;;;2.79;100.00;101224.34;10590701;27;20048;-83
2021/11/25 01:49:31;;;;;;;49.63;24.75;;;;;;;2.71;100.00;101225.59;10616540;27;20055;-82
2021/11/25 01:54:32;;;;;;;44.75;22.88;;;;;;;2.77;100.00;101221.69;10609166;27;20077;-83
2021/11/25 01:59:38;;;;;;;50.58;27.23;;;;;;;2.75;100.00;101215.63;10590553;28;20067;-83
2021/11/25 02:04:40;;;;;;;57.43;28.27;;;;;;;2.73;100.00;101199.34;10605154;27;20082;-83
2021/11/25 02:09:42;;;;;;;65.65;31.73;;;;;;;2.78;100.00;101204.69;10599217;27;20054;-84
2021/11/25 02:14:43;;;;;;;59.67;32.97;;;;;;;2.76;100.00;101202.06;10586935;27;20046;-84
2021/11/25 02:19:48;;;;;;;67.07;34.10;;;;;;;2.76;100.00;101184.16;10602602;27;20530;-83
2021/11/25 02:24:50;;;;;;;70.05;34.13;;;;;;;2.78;100.00;101174.94;10601087;27;20044;-83
2021/11/25 02:29:52;;;;;;;69.40;34.50;;;;;;;2.82;100.00;101160.63;10591998;27;20594;-84
2021/11/25 02:34:53;;;;;;;74.28;37.35;;;;;;;2.96;100.00;101162.22;10598283;27;20058;-83
2021/11/25 02:39:55;;;;;;;72.43;36.83;;;;;;;2.97;100.00;101158.84;10581804;28;20051;-83
2021/11/25 02:44:56;;;;;;;75.85;38.45;;;;;;;3.02;100.00;101162.50;10582954;28;20044;-83
2021/11/25 02:49:58;;;;;;;74.35;39.10;;;;;;;3.05;100.00;101159.22;10596236;27;20061;-83
2021/11/25 02:54:59;;;;;;;81.57;39.90;;;;;;;3.05;100.00;101149.88;10581232;28;20127;-83
2021/11/25 03:00:05;;;;;;;82.90;37.25;;;;;;;3.16;100.00;101143.63;10595136;27;20491;-84
2021/11/25 03:05:10;;;;;;;72.75;36.67;;;;;;;3.10;100.00;101137.31;10600288;27;20100;-84
2021/11/25 03:10:12;;;;;;;73.03;38.70;;;;;;;3.04;100.00;101132.78;10592695;27;20043;-83
2021/11/25 03:15:13;;;;;;;80.07;35.65;;;;;;;3.13;100.00;101128.16;10596536;27;20054;-82
2021/11/25 03:20:15;;;;;;;77.20;38.35;;;;;;;3.09;100.00;101117.69;10593781;27;20054;-83
2021/11/25 03:25:17;;;;;;;76.10;39.70;;;;;;;3.10;100.00;101122.00;10591326;27;20065;-83
2021/11/25 03:30:19;;;;;;;77.07;37.72;;;;;;;3.19;100.00;101122.47;10612209;27;20093;-83
2021/11/25 03:35:20;;;;;;;74.82;40.35;;;;;;;3.12;100.00;101115.25;10594644;27;20053;-83
2021/11/25 03:40:23;;;;;;;79.13;39.28;;;;;;;3.09;100.00;101112.56;10607595;27;20069;-83
2021/11/25 03:45:25;;;;;;;79.22;40.13;;;;;;;3.13;100.00;101114.50;10580875;28;20055;-83
2021/11/25 03:50:26;;;;;;;72.85;36.28;;;;;;;3.10;100.00;101115.19;10608528;27;20514;-83
2021/11/25 03:55:28;;;;;;;68.50;37.22;;;;;;;3.17;100.00;101117.25;10592883;27;20503;-84
2021/11/25 04:00:31;;;;;;;58.15;33.33;;;;;;;3.02;100.00;101108.84;10579978;27;20052;-84
2021/11/25 04:05:35;;;;;;;58.33;31.77;;;;;;;3.07;100.00;101101.41;10585634;27;20506;-83
2021/11/25 04:10:37;;;;;;;74.85;36.45;;;;;;;3.10;100.00;101101.53;10600209;27;20044;-83
2021/11/25 04:15:39;;;;;;;54.00;32.28;;;;;;;3.07;100.00;101089.50;10591849;27;20368;-83
2021/11/25 04:20:41;;;;;;;60.83;34.33;;;;;;;3.06;100.00;101094.53;10590580;27;20062;-83
2021/11/25 04:25:43;;;;;;;59.00;34.38;;;;;;;3.13;100.00;101106.81;10588600;27;20055;-83
2021/11/25 04:35:46;;;;;;;58.63;32.25;;;;;;;3.05;100.00;101113.22;10596644;27;20047;-83
2021/11/25 04:40:54;;;;;;;61.08;34.08;;;;;;;3.07;100.00;101099.72;10602042;27;20051;-84
2021/11/25 04:45:57;;;;;;;56.42;31.90;;;;;;;3.08;100.00;101096.38;10578384;28;20100;-82
2021/11/25 04:50:59;;;;;;;57.35;32.75;;;;;;;3.16;100.00;101097.59;10591416;27;20048;-84
2021/11/25 04:56:00;;;;;;;57.53;33.55;;;;;;;3.11;100.00;101090.50;10578406;28;20056;-83
2021/11/25 05:01:03;;;;;;;55.40;32.53;;;;;;;3.16;100.00;101076.28;10576972;28;20491;-83
2021/11/25 05:06:05;;;;;;;63.10;33.58;;;;;;;3.09;100.00;101081.91;10602434;28;20130;-84
2021/11/25 05:11:07;;;;;;;52.35;31.75;;;;;;;3.13;100.00;101083.81;10577133;28;20130;-84
2021/11/25 05:16:08;;;;;;;45.45;26.35;;;;;;;3.02;100.00;101096.06;10617992;28;20047;-83
2021/11/25 05:21:10;;;;;;;45.00;27.30;;;;;;;3.06;100.00;101105.63;10579918;28;20562;-82
2021/11/25 05:26:12;;;;;;;49.83;28.35;;;;;;;3.03;100.00;101115.72;10583967;28;20471;-82
2021/11/25 05:31:14;;;;;;;50.17;28.05;;;;;;;3.00;100.00;101112.09;10577806;28;20154;-82
2021/11/25 05:36:15;;;;;;;61.60;30.30;;;;;;;2.99;100.00;101095.91;10576013;28;20109;-82
2021/11/25 05:41:17;;;;;;;53.42;31.20;;;;;;;3.01;100.00;101078.13;10611565;28;20054;-81
2021/11/25 05:46:19;;;;;;;60.03;36.45;;;;;;;3.18;100.00;101077.25;10584090;27;20044;-82
2021/11/25 05:51:20;;;;;;;65.40;38.95;;;;;;;3.25;100.00;101069.06;10584359;28;20047;-81
2021/11/25 05:56:22;;;;;;;56.42;37.03;;;;;;;3.29;100.00;101065.88;10601973;27;20117;-82
2021/11/25 06:01:24;;;;;;;63.60;39.03;;;;;;;3.24;100.00;101056.22;10601494;27;20047;-82
2021/11/25 06:06:26;;;;;;;64.05;38.30;;;;;;;3.27;100.00;101052.13;10592977;27;20064;-82
2021/11/25 06:11:28;;;;;;;60.95;37.13;;;;;;;3.19;100.00;101035.56;10592149;27;20055;-82
2021/11/25 06:16:29;;;;;;;60.00;35.88;;;;;;;3.17;100.00;101024.34;10604391;27;20555;-81
2021/11/25 06:21:31;;;;;;;59.45;34.47;;;;;;;3.14;100.00;101022.53;10618257;27;20051;-82
2021/11/25 06:26:39;;;;;;;64.80;37.75;;;;;;;3.12;100.00;101008.84;10575949;28;20053;-82
2021/11/25 06:31:41;;;;;;;61.22;37.35;;;;;;;3.09;100.00;101011.22;10581931;27;20062;-81
2021/11/25 06:36:42;;;;;;;63.13;38.15;;;;;;;3.12;100.00;101007.94;10578898;28;20052;-82
2021/11/25 06:41:44;;;;;;;52.28;32.78;;;;;;;3.14;100.00;101032.78;10578672;28;20043;-82
2021/11/25 06:46:46;;;;;;;53.47;34.08;;;;;;;3.05;100.00;101039.97;10579393;28;20396;-82
2021/11/25 06:51:47;;;;;;;50.65;32.70;;;;;;;3.08;100.00;101040.16;10597414;27;20067;-82
2021/11/25 06:56:49;;;;;;;59.60;32.22;;;;;;;2.98;100.00;101034.50;10618772;27;20052;-82
2021/11/25 07:01:51;;;;;;;49.88;31.17;;;;;;;2.97;100.00;101032.78;10601709;27;20066;-82
2021/11/25 07:06:52;;;;;;;53.53;32.75;;;;;;;3.01;100.00;101035.56;10580813;28;20407;-81
2021/11/25 07:11:56;;;;;;;52.25;30.70;;;;;;;2.96;100.00;101031.91;10582300;28;20057;-82
2021/11/25 07:16:58;;;;;;;53.08;31.80;;;;;;;2.94;100.00;101033.47;10606364;27;20058;-82
2021/11/25 07:22:00;;;;;;;39.65;23.25;;;;;;;2.91;100.00;101057.22;10587835;27;20043;-81
2021/11/25 07:27:03;;;;;;;49.63;30.13;;;;;;;3.04;100.00;101050.13;10600452;27;20419;-81
2021/11/25 07:32:05;;;;;;;51.58;32.95;;;;;;;3.05;100.00;101034.00;10620746;27;20043;-81
2021/11/25 07:37:07;;;;;;;50.13;32.55;;;;;;;3.09;100.00;101047.00;10577394;28;20052;-81
2021/11/25 07:42:09;;;;;;;53.28;31.38;;;;;;;3.16;100.00;101035.38;10585520;27;20382;-81
2021/11/25 07:47:12;;;;;;;48.53;30.38;;;;;;;3.18;100.00;101028.69;10580491;27;20043;-81
2021/11/25 07:52:14;;;;;;;47.55;30.83;;;;;;;3.25;100.00;101028.16;10600672;27;20143;-81
2021/11/25 07:57:16;;;;;;;46.05;29.30;;;;;;;3.27;100.00;101025.69;10582346;27;20043;-82
2021/11/25 08:02:19;;;;;;;44.83;29.83;;;;;;;3.29;100.00;101030.06;10579812;27;20047;-81
2021/11/25 08:07:21;;;;;;;47.72;29.80;;;;;;;3.27;100.00;101031.66;10577423;28;20518;-82
2021/11/25 08:12:23;;;;;;;46.83;30.23;;;;;;;3.31;100.00;101025.91;10602043;27;20541;-81
2021/11/25 08:17:25;;;;;;;38.17;27.83;;;;;;;3.38;100.00;101021.94;10589866;27;20084;-81
2021/11/25 08:22:26;;;;;;;46.70;28.95;;;;;;;3.44;100.00;101029.88;10591029;27;20054;-81
2021/11/25 08:27:28;;;;;;;42.95;27.60;;;;;;;3.53;100.00;101034.56;10602914;27;20055;-81
2021/11/25 08:32:29;;;;;;;40.80;27.55;;;;;;;3.53;100.00;101037.13;10590519;27;20130;-81
2021/11/25 08:37:32;;;;;;;41.63;27.77;;;;;;;3.57;100.00;101036.44;10578001;28;20058;-81
2021/11/25 08:42:34;;;;;;;42.92;28.30;;;;;;;3.59;100.00;101034.84;10591609;27;20109;-82
2021/11/25 08:47:36;;;;;;;40.25;28.08;;;;;;;3.59;100.00;101034.84;10583844;27;20051;-82
2021/11/25 08:52:38;;;;;;;41.80;26.77;;;;;;;3.73;100.00;101032.09;10601571;27;20061;-81
2021/11/25 08:57:39;;;;;;;38.85;27.40;;;;;;;3.67;100.00;101026.69;10591260;27;20051;-82
2021/11/25 09:02:42;;;;;;;37.35;26.73;;;;;;;3.82;100.00;101033.34;10576432;28;20047;-82
2021/11/25 09:07:44;;;;;;;35.92;23.40;;;;;;;3.71;100.00;101038.84;10576083;28;20052;-83
2021/11/25 09:12:46;;;;;;;31.73;24.42;;;;;;;3.65;100.00;101035.13;10577564;28;20050;-82
2021/11/25 09:17:54;;;;;;;35.35;23.38;;;;;;;3.57;100.00;101044.09;10588784;28;20146;-82
2021/11/25 09:23:00;;;;;;;38.13;26.02;;;;;;;3.53;100.00;101029.47;10602644;27;20134;-81
2021/11/25 09:28:02;;;;;;;36.58;25.30;;;;;;;3.45;100.00;101023.97;10584607;28;20055;-82
2021/11/25 09:33:05;;;;;;;39.47;26.05;;;;;;;3.36;100.00;101029.56;10597989;27;20139;-82
2021/11/25 09:38:09;;;;;;;36.90;25.60;;;;;;;3.52;100.00;101026.03;10593614;27;20416;-82
2021/11/25 09:43:20;;;;;;;35.57;25.67;;;;;;;3.51;100.00;101038.72;10601779;27;20055;-82
2021/11/25 09:48:25;;;;;;;39.97;24.52;;;;;;;3.44;100.00;101038.44;10594977;27;20761;-81
2021/11/25 09:53:28;;;;;;;40.65;27.67;;;;;;;3.70;100.00;101054.13;10583112;28;20399;-82
2021/11/25 09:58:32;;;;;;;45.65;29.02;;;;;;;3.75;100.00;101064.56;10600058;27;20074;-82
2021/11/25 10:03:35;;;;;;;45.95;28.85;;;;;;;3.56;100.00;101062.81;10583476;28;20070;-82
2021/11/25 10:08:44;;;;;;;46.67;29.35;;;;;;;3.73;100.00;101060.22;10589509;27;20047;-82
2021/11/25 10:13:47;;;;;;;47.97;30.70;;;;;;;3.63;100.00;101044.41;10584726;27;20083;-81
2021/11/25 10:18:49;;;;;;;50.63;32.05;;;;;;;3.69;100.00;101052.38;10607630;27;20520;-81
2021/11/25 10:23:53;;;;;;;46.20;32.40;;;;;;;3.65;100.00;101040.25;10600173;27;20051;-80
2021/11/25 10:28:57;;;;;;;49.55;33.47;;;;;;;3.72;100.00;101034.59;10582005;28;20055;-82
2021/11/25 10:34:53;;;;;;;51.90;33.42;;;;;;;3.84;100.00;101029.16;10580776;28;20050;-81
2021/11/25 10:44:59;;;;;;;53.60;32.63;;;;;;;4.22;100.00;101015.47;10582332;28;20040;-82
2021/11/25 10:50:07;;;;;;;54.38;32.85;;;;;;;4.27;100.00;101006.31;10606226;27;20051;-82
2021/11/25 10:55:14;;;;;;;55.53;32.70;;;;;;;4.17;100.00;101002.47;10568114;28;20059;-82
2021/11/25 11:00:23;;;;;;;60.17;37.72;;;;;;;4.34;100.00;101002.31;10595000;27;20068;-82
2021/11/25 11:05:25;;;;;;;62.03;36.35;;;;;;;4.31;100.00;101005.63;10599143;27;20122;-82
2021/11/25 11:10:29;;;;;;;64.60;40.15;;;;;;;4.25;100.00;101005.34;10579887;28;20047;-82
2021/11/25 11:15:52;;;;;;;71.43;42.15;;;;;;;4.55;100.00;101010.03;10590477;27;20068;-82
2021/11/25 11:20:57;;;;;;;63.95;38.80;;;;;;;4.46;100.00;101008.81;10581602;27;20055;-81
2021/11/25 11:25:59;;;;;;;70.57;41.78;;;;;;;4.52;100.00;101014.22;10606722;27;20077;-82
2021/11/25 11:31:01;;;;;;;70.07;39.33;;;;;;;4.74;100.00;101002.28;10579045;28;20048;-82
2021/11/25 11:36:03;;;;;;;62.30;40.58;;;;;;;4.85;100.00;101002.72;10579520;28;20765;-82
2021/11/25 11:41:05;;;;;;;69.63;38.00;;;;;;;4.75;100.00;101004.91;10582958;27;20053;-82
2021/11/25 11:46:07;;;;;;;65.85;39.42;;;;;;;4.96;100.00;101002.34;10599492;27;20043;-82
2021/11/25 11:51:17;;;;;;;68.15;40.80;;;;;;;5.14;100.00;101003.88;10596392;27;20043;-83
2021/11/25 11:56:19;;;;;;;74.88;42.40;;;;;;;5.19;100.00;100992.13;10590605;27;20109;-82
2021/11/25 12:01:26;;;;;;;76.57;44.90;;;;;;;5.23;100.00;100992.28;10603178;27;20043;-82
2021/11/25 12:06:40;;;;;;;75.20;42.00;;;;;;;5.35;100.00;101004.72;10593302;27;20432;-82
2021/11/25 12:11:45;;;;;;;77.25;45.47;;;;;;;5.33;100.00;100996.06;10577644;27;20051;-82
2021/11/25 12:16:58;;;;;;;74.25;42.65;;;;;;;5.54;100.00;100984.06;10594173;27;20063;-82
2021/11/25 12:22:14;;;;;;;78.22;45.53;;;;;;;5.62;100.00;100968.09;10615025;27;20055;-82
2021/11/25 12:27:30;;;;;;;77.43;44.97;;;;;;;5.65;100.00;100960.50;10592885;27;20131;-82
2021/11/25 12:32:44;;;;;;;78.10;46.38;;;;;;;5.70;100.00;100961.53;10565442;27;20042;-79
2021/11/25 12:37:49;;;;;;;77.07;43.63;;;;;;;5.78;100.00;100952.41;10602159;27;20050;-79
2021/11/25 12:43:20;;;;;;;75.03;46.50;;;;;;;5.79;100.00;100936.22;10591062;27;20058;-79
2021/11/25 12:48:39;;;;;;;78.40;43.83;;;;;;;5.96;100.00;100941.97;10590994;27;20047;-79
2021/11/25 12:53:48;;;;;;;77.05;42.90;;;;;;;6.18;100.00;100934.16;10593447;27;20062;-79
2021/11/25 12:58:56;;;;;;;72.50;41.13;;;;;;;6.17;100.00;100931.53;10562497;28;20392;-79
2021/11/25 13:04:10;;;;;;;55.42;32.67;;;;;;;6.27;100.00;100924.19;10614871;28;20039;-80
2021/11/25 13:09:18;;;;;;;67.28;36.97;;;;;;;6.30;100.00;100924.31;10602487;28;20055;-79
2021/11/25 13:14:23;;;;;;;61.10;35.63;;;;;;;6.40;100.00;100914.31;10576180;28;20044;-79
2021/11/25 13:19:28;;;;;;;65.97;36.55;;;;;;;6.47;100.00;100911.16;10622730;28;20050;-79
2021/11/25 13:24:39;;;;;;;58.80;32.08;;;;;;;6.50;100.00;100906.09;10611060;28;20051;-79
2021/11/25 13:29:56;;;;;;;60.92;33.75;;;;;;;6.58;100.00;100902.06;10608842;28;20394;-79
2021/11/25 13:35:06;;;;;;;61.25;33.03;;;;;;;6.57;100.00;100893.47;10594021;28;20044;-79
2021/11/25 13:40:11;;;;;;;52.33;28.23;;;;;;;6.59;100.00;100894.41;10588907;28;20047;-79
2021/11/25 13:45:23;;;;;;;51.47;26.85;;;;;;;6.73;100.00;100901.69;10592414;28;20057;-79
2021/11/25 13:50:25;;;;;;;44.38;21.45;;;;;;;6.82;100.00;100889.13;10578053;28;20055;-79
2021/11/25 13:55:38;;;;;;;37.20;21.05;;;;;;;6.77;100.00;100882.97;10573529;28;20056;-79
2021/11/25 14:00:40;;;;;;;24.98;13.95;;;;;;;6.63;100.00;100882.50;10582464;28;20058;-79
2021/11/25 14:05:46;;;;;;;25.20;12.27;;;;;;;6.62;100.00;100885.91;10590105;27;20128;-79
2021/11/25 14:10:48;;;;;;;26.73;13.13;;;;;;;6.50;100.00;100878.69;10598904;27;20043;-79
2021/11/25 14:15:50;;;;;;;23.52;11.60;;;;;;;6.53;100.00;100888.22;10604557;27;20130;-79
2021/11/25 14:20:51;;;;;;;23.95;11.32;;;;;;;6.41;100.00;100882.66;10613657;27;20470;-79
2021/11/25 14:26:00;;;;;;;22.92;10.40;;;;;;;6.35;100.00;100893.59;10610312;27;20043;-79
2021/11/25 14:31:24;;;;;;;18.20;7.70;;;;;;;6.42;100.00;100908.44;10598477;27;20051;-79
2021/11/25 14:36:39;;;;;;;21.15;8.15;;;;;;;6.35;100.00;100899.66;10594820;27;20097;-79
2021/11/25 14:41:44;;;;;;;15.27;5.88;;;;;;;6.30;100.00;100883.22;10583744;28;20052;-79
2021/11/25 14:47:07;;;;;;;16.08;6.55;;;;;;;6.09;100.00;100893.63;10595454;27;20046;-79
2021/11/25 14:52:10;;;;;;;14.25;6.13;;;;;;;6.26;100.00;100896.75;10607379;27;20055;-79
2021/11/25 14:57:25;;;;;;;15.35;5.03;;;;;;;6.39;100.00;100895.47;10595506;27;20051;-79
2021/11/25 15:02:38;;;;;;;12.80;4.82;;;;;;;6.28;100.00;100895.09;10607424;27;20058;-79
2021/11/25 15:07:50;;;;;;;7.45;2.50;;;;;;;6.21;100.00;100882.03;10589925;27;20048;-78
2021/11/25 15:12:52;;;;;;;10.63;3.17;;;;;;;5.95;100.00;100896.56;10600055;27;20079;-79
2021/11/25 15:17:56;;;;;;;8.35;4.10;;;;;;;5.71;100.00;100894.84;10590817;27;20048;-78
2021/11/25 15:22:57;;;;;;;5.72;3.05;;;;;;;5.46;100.00;100889.69;10589863;27;20063;-78
2021/11/25 15:28:02;;;;;;;8.48;2.35;;;;;;;5.68;100.00;100888.75;10605812;27;20039;-79
2021/11/25 15:33:08;;;;;;;9.15;2.08;;;;;;;5.56;100.00;100892.63;10612412;27;20053;-78
2021/11/25 15:38:13;;;;;;;11.93;2.10;;;;;;;5.41;100.00;100888.63;10593504;27;20043;-79
2021/11/25 15:43:16;;;;;;;6.85;1.92;;;;;;;5.18;100.00;100893.78;10595806;27;20059;-78
2021/11/25 15:48:18;;;;;;;7.07;2.50;;;;;;;4.92;100.00;100897.94;10595403;27;20058;-78
2021/11/25 15:53:23;;;;;;;6.10;1.92;;;;;;;4.76;100.00;100917.00;10624344;27;20055;-79
2021/11/25 15:58:27;;;;;;;4.97;2.10;;;;;;;4.68;100.00;100910.66;10612227;27;20039;-79
2021/11/25 16:03:28;;;;;;;4.00;2.13;;;;;;;4.69;100.00;100906.41;10583992;27;20056;-79
2021/11/25 16:08:31;;;;;;;8.93;2.33;;;;;;;4.66;100.00;100911.44;10596630;27;20047;-78
2021/11/25 16:13:43;;;;;;;6.68;2.28;;;;;;;4.35;100.00;100907.63;10610549;27;20059;-79
2021/11/25 16:18:44;;;;;;;6.95;2.08;;;;;;;4.49;100.00;100893.72;10596585;27;20432;-78
2021/11/25 16:23:46;;;;;;;7.97;2.10;;;;;;;4.49;100.00;100897.97;10600492;27;20058;-78
2021/11/25 16:28:48;;;;;;;8.43;3.15;;;;;;;4.52;100.00;100896.38;10623877;27;20397;-79
2021/11/25 16:33:50;;;;;;;8.27;2.95;;;;;;;4.17;100.00;100909.44;10591860;27;20054;-78
2021/11/25 16:38:52;;;;;;;7.45;2.40;;;;;;;4.00;100.00;100916.41;10624876;27;20051;-78
2021/11/25 16:43:55;;;;;;;11.85;3.03;;;;;;;4.13;100.00;100905.88;10588311;27;20058;-79
2021/11/25 16:48:57;;;;;;;6.72;2.30;;;;;;;4.13;100.00;100907.56;10613006;27;20196;-78
2021/11/25 16:53:59;;;;;;;11.68;3.10;;;;;;;3.94;100.00;100911.03;10600037;27;20059;-78
2021/11/25 16:59:01;;;;;;;7.55;2.85;;;;;;;3.85;100.00;100918.31;10600997;27;20053;-78
2021/11/25 17:04:04;;;;;;;7.57;2.17;;;;;;;3.71;100.00;100908.38;10583553;28;20130;-78
2021/11/25 17:09:07;;;;;;;5.30;2.58;;;;;;;3.54;100.00;100916.13;10573960;28;20564;-79
2021/11/25 17:14:09;;;;;;;12.82;5.25;;;;;;;3.44;100.00;100915.69;10587900;28;20108;-78
2021/11/25 17:19:11;;;;;;;8.82;3.72;;;;;;;3.43;100.00;100903.72;10586942;28;20060;-79
2021/11/25 17:24:13;;;;;;;8.93;2.70;;;;;;;3.26;100.00;100907.22;10579077;28;20054;-78
2021/11/25 17:29:16;;;;;;;6.53;3.05;;;;;;;3.04;100.00;100919.81;10599415;28;20087;-79
2021/11/25 17:34:18;;;;;;;7.07;2.72;;;;;;;3.11;100.00;100915.06;10602214;28;20043;-79
2021/11/25 17:39:24;;;;;;;5.20;2.83;;;;;;;2.86;100.00;100905.38;10583437;27;20108;-78
2021/11/25 17:44:26;;;;;;;4.75;2.53;;;;;;;2.67;100.00;100900.25;10582275;27;20078;-78
2021/11/25 17:49:29;;;;;;;5.32;2.50;;;;;;;2.63;100.00;100895.78;10617657;27;20486;-79
2021/11/25 17:54:35;;;;;;;7.40;2.08;;;;;;;2.59;100.00;100912.63;10596562;27;20130;-78
2021/11/25 17:59:37;;;;;;;9.00;4.70;;;;;;;2.23;100.00;100908.31;10606942;27;20051;-80
2021/11/25 18:04:38;;;;;;;15.60;7.13;;;;;;;2.22;100.00;100901.44;10618365;27;20043;-78
2021/11/25 18:09:40;;;;;;;8.45;4.43;;;;;;;2.31;100.00;100900.19;10603034;27;20104;-79
2021/11/25 18:14:51;;;;;;;12.38;4.05;;;;;;;2.38;100.00;100906.47;10597548;27;20399;-79
2021/11/25 18:19:56;;;;;;;9.73;4.88;;;;;;;2.10;100.00;100907.69;10606325;27;20050;-78
2021/11/25 18:25:04;;;;;;;12.67;6.90;;;;;;;1.93;100.00;100905.06;10624088;27;20122;-79
2021/11/25 18:30:07;;;;;;;8.90;3.80;;;;;;;1.74;100.00;100903.28;10625252;27;20788;-77
2021/11/25 18:35:11;;;;;;;10.05;3.10;;;;;;;1.67;100.00;100902.09;10616424;27;20138;-78
2021/11/25 18:40:13;;;;;;;7.40;3.20;;;;;;;1.66;100.00;100894.38;10604567;27;20047;-78
2021/11/25 18:45:19;;;;;;;6.95;3.70;;;;;;;1.61;100.00;100888.16;10620778;27;20047;-77
2021/11/25 18:50:21;;;;;;;7.43;3.30;;;;;;;1.57;100.00;100890.53;10623596;27;20081;-77
2021/11/25 18:55:24;;;;;;;6.03;2.65;;;;;;;1.50;100.00;100890.16;10603139;27;20563;-78
2021/11/25 19:00:26;;;;;;;28.33;15.27;;;;;;;1.58;100.00;100881.22;10608611;27;20059;-77
2021/11/25 19:05:27;;;;;;;22.67;13.40;;;;;;;1.53;100.00;100880.09;10581359;27;20062;-78
2021/11/25 19:10:29;;;;;;;15.35;5.50;;;;;;;1.43;100.00;100880.47;10613068;27;20142;-79
2021/11/25 19:15:31;;;;;;;13.45;4.65;;;;;;;1.39;100.00;100879.41;10598796;27;20433;-78
2021/11/25 19:20:34;;;;;;;6.90;3.97;;;;;;;1.42;100.00;100883.78;10625771;27;20502;-77
2021/11/25 19:25:36;;;;;;;11.00;4.20;;;;;;;1.32;100.00;100880.75;10608028;27;20093;-77
2021/11/25 19:30:39;;;;;;;9.68;4.68;;;;;;;1.49;100.00;100881.63;10607504;27;20074;-78
2021/11/25 19:35:48;;;;;;;10.02;4.35;;;;;;;1.47;100.00;100874.69;10608816;27;20055;-78
2021/11/25 19:40:54;;;;;;;10.05;4.55;;;;;;;1.73;100.00;100864.16;10595904;27;20054;-78
2021/11/25 19:45:56;;;;;;;9.85;4.53;;;;;;;1.53;100.00;100846.97;10598854;27;20135;-78
2021/11/25 19:50:58;;;;;;;14.18;6.18;;;;;;;1.52;100.00;100846.09;10595390;27;20060;-78
2021/11/25 19:56:00;;;;;;;9.50;5.30;;;;;;;1.38;100.00;100858.94;10578936;28;20082;-77
2021/11/25 20:01:02;;;;;;;13.98;6.70;;;;;;;1.38;100.00;100871.69;10604089;27;20047;-78
2021/11/25 20:06:06;;;;;;;20.33;12.25;;;;;;;1.83;100.00;100843.44;10596842;27;20051;-78
2021/11/25 20:11:12;;;;;;;24.25;12.38;;;;;;;1.89;100.00;100837.75;10600552;27;20051;-78
2021/11/25 20:16:15;;;;;;;24.75;12.00;;;;;;;2.12;100.00;100834.66;10585774;27;20428;-79
2021/11/25 20:21:18;;;;;;;21.38;11.88;;;;;;;1.85;100.00;100834.16;10582546;27;20054;-79
2021/11/25 20:26:20;;;;;;;22.15;13.43;;;;;;;1.78;100.00;100827.03;10601798;27;20104;-78
2021/11/25 20:31:22;;;;;;;12.55;6.20;;;;;;;1.19;100.00;100824.88;10587900;27;20558;-79
2021/11/25 20:36:28;;;;;;;8.23;4.28;;;;;;;1.17;100.00;100823.91;10595892;27;20097;-78
2021/11/25 20:41:29;;;;;;;7.50;5.00;;;;;;;1.20;100.00;100818.13;10581136;27;20048;-79
2021/11/25 20:46:32;;;;;;;13.38;7.65;;;;;;;1.20;100.00;100810.47;10593748;27;20048;-78
2021/11/25 20:51:33;;;;;;;16.65;8.93;;;;;;;1.24;100.00;100809.81;10588984;27;20086;-78
2021/11/25 20:56:37;;;;;;;22.40;12.70;;;;;;;1.46;100.00;100796.50;10566588;28;20058;-78
2021/11/25 21:01:39;;;;;;;17.25;11.07;;;;;;;1.51;100.00;100789.94;10535149;28;20083;-78
2021/11/25 21:06:42;;;;;;;26.38;16.73;;;;;;;1.51;100.00;100783.19;10565899;28;20040;-78
2021/11/25 21:11:45;;;;;;;24.15;14.85;;;;;;;1.23;100.00;100782.59;10549863;28;20090;-78
2021/11/25 21:16:48;;;;;;;24.50;13.27;;;;;;;1.13;100.00;100781.22;10554668;28;20051;-78
2021/11/25 21:21:49;;;;;;;22.63;14.82;;;;;;;1.22;100.00;100781.72;10577099;28;20044;-78
2021/11/25 21:26:58;;;;;;;19.73;11.77;;;;;;;0.97;100.00;100776.16;10573846;28;20040;-78
2021/11/25 21:32:00;;;;;;;19.20;12.45;;;;;;;0.96;100.00;100765.06;10561517;28;20135;-78
2021/11/25 21:37:05;;;;;;;36.72;19.73;;;;;;;0.95;100.00;100744.63;10526475;28;20078;-78
2021/11/25 21:42:07;;;;;;;18.98;11.70;;;;;;;1.36;100.00;100743.31;10542381;28;20052;-78
2021/11/25 21:47:09;;;;;;;19.85;9.07;;;;;;;1.69;100.00;100729.66;10550486;28;20054;-79
2021/11/25 21:52:11;;;;;;;18.33;8.73;;;;;;;1.60;100.00;100729.25;10587354;27;20059;-79
2021/11/25 21:57:13;;;;;;;19.60;9.68;;;;;;;1.43;100.00;100719.91;10593847;27;20559;-78
2021/11/25 22:02:16;;;;;;;16.88;8.60;;;;;;;1.41;100.00;100701.97;10603530;27;20054;-78
2021/11/25 22:07:18;;;;;;;13.48;7.88;;;;;;;1.16;100.00;100710.06;10601414;27;20050;-78
2021/11/25 22:12:19;;;;;;;20.40;8.35;;;;;;;0.99;100.00;100696.50;10587364;27;20055;-78
2021/11/25 22:17:21;;;;;;;13.70;8.40;;;;;;;1.04;100.00;100689.97;10594988;27;20138;-78
2021/11/25 22:27:43;;;;;;;19.50;10.20;;;;;;;1.00;100.00;100677.00;10625858;27;20047;-78
2021/11/25 22:32:45;;;;;;;27.00;9.40;;;;;;;1.01;100.00;100666.88;10604510;27;20324;-78
2021/11/25 22:37:47;;;;;;;20.05;9.20;;;;;;;0.99;100.00;100659.97;10598181;27;20043;-78
2021/11/25 22:42:48;;;;;;;20.13;7.75;;;;;;;0.97;100.00;100664.13;10595546;27;20122;-78
2021/11/25 22:47:50;;;;;;;12.80;7.70;;;;;;;0.77;100.00;100660.56;10581975;28;20054;-79
2021/11/25 22:52:53;;;;;;;14.23;8.55;;;;;;;0.77;100.00;100655.47;10598361;27;20511;-78
2021/11/25 22:57:55;;;;;;;13.15;7.78;;;;;;;0.74;100.00;100647.69;10592244;27;20055;-78
2021/11/25 23:02:57;;;;;;;14.80;8.57;;;;;;;0.87;100.00;100639.00;10593164;27;20051;-78
2021/11/25 23:08:00;;;;;;;18.42;9.38;;;;;;;0.99;100.00;100640.47;10609766;27;20043;-78